Time;durP1;ratioP1;P1;durP2;ratioP2;P2;SDS_P1;SDS_P2;PMS_P1;PMS_P2;Temp;Humidity;BMP_temperature;BMP_pressure;BME280_temperature;BME280_humidity;BME280_pressure;Samples;Min_cycle;Max_cycle;Signal;HPM_P1;HPM_P2
2023/06/22 00:00:24;;;;;;;3.28;2.97;;;22.90;94.10;;;;;;2099161;28;20102;-71
2023/06/22 00:01:25;;;;;;;2.92;2.72;;;23.00;93.60;;;;;;2101315;28;20020;-71
2023/06/22 00:02:25;;;;;;;3.80;3.25;;;22.90;93.30;;;;;;2097130;28;20468;-71
2023/06/22 00:03:26;;;;;;;5.53;3.92;;;22.90;93.70;;;;;;2098639;28;20543;-71
2023/06/22 00:04:27;;;;;;;5.20;4.15;;;22.90;94.20;;;;;;2099881;28;20024;-71
2023/06/22 00:05:27;;;;;;;6.85;3.55;;;22.90;94.90;;;;;;2097906;28;20434;-71
2023/06/22 00:06:28;;;;;;;4.00;3.63;;;22.90;95.30;;;;;;2100181;28;20028;-71
2023/06/22 00:07:28;;;;;;;3.95;3.00;;;22.90;95.10;;;;;;2097373;28;20089;-71
2023/06/22 00:08:29;;;;;;;3.15;2.85;;;22.90;94.50;;;;;;2097550;28;20031;-71
2023/06/22 00:09:31;;;;;;;4.93;4.53;;;22.90;94.30;;;;;;2099596;28;20039;-71
2023/06/22 00:10:31;;;;;;;4.28;3.85;;;22.90;94.80;;;;;;2099593;28;20033;-71
2023/06/22 00:11:35;;;;;;;4.03;3.60;;;22.90;94.70;;;;;;2096694;28;20108;-72
2023/06/22 00:12:36;;;;;;;4.78;4.38;;;22.90;94.70;;;;;;2100131;28;20016;-71
2023/06/22 00:13:37;;;;;;;4.95;3.47;;;22.90;95.20;;;;;;2097901;28;20021;-71
2023/06/22 00:14:37;;;;;;;5.40;3.85;;;22.90;94.30;;;;;;2099416;28;20865;-71
2023/06/22 00:15:40;;;;;;;6.20;4.55;;;22.90;94.60;;;;;;2091931;28;20046;-71
2023/06/22 00:16:42;;;;;;;5.53;4.03;;;22.80;95.20;;;;;;2098890;28;20012;-71
2023/06/22 00:17:43;;;;;;;5.75;5.25;;;22.90;95.60;;;;;;2096912;28;20023;-71
2023/06/22 00:18:46;;;;;;;4.75;4.25;;;22.90;96.00;;;;;;2099835;28;20056;-72
2023/06/22 00:19:53;;;;;;;4.85;4.45;;;22.80;96.10;;;;;;2098637;28;20061;-72
2023/06/22 00:20:57;;;;;;;5.38;4.18;;;22.90;96.10;;;;;;2093089;28;20031;-71
2023/06/22 00:22:00;;;;;;;4.68;4.15;;;22.90;96.40;;;;;;2099833;28;20077;-71
2023/06/22 00:23:00;;;;;;;5.68;5.05;;;22.90;95.40;;;;;;2098876;28;20108;-71
2023/06/22 00:24:01;;;;;;;5.00;4.60;;;22.90;95.60;;;;;;2091330;28;20036;-71
2023/06/22 00:25:01;;;;;;;5.75;5.00;;;22.90;96.50;;;;;;2097118;28;20346;-71
2023/06/22 00:26:02;;;;;;;4.90;4.50;;;22.90;96.70;;;;;;2099340;28;20048;-71
2023/06/22 00:27:05;;;;;;;5.32;4.45;;;22.90;97.10;;;;;;2100952;28;20480;-71
2023/06/22 00:28:06;;;;;;;4.85;4.00;;;22.80;97.10;;;;;;2099852;28;20032;-71
2023/06/22 00:29:06;;;;;;;4.75;3.75;;;22.80;97.80;;;;;;2097283;28;20488;-71
2023/06/22 00:30:07;;;;;;;8.38;5.53;;;22.90;96.90;;;;;;2097469;28;20380;-71
2023/06/22 00:31:08;;;;;;;5.65;4.60;;;22.90;97.60;;;;;;2099872;28;20579;-71
2023/06/22 00:32:08;;;;;;;4.82;4.32;;;22.90;97.60;;;;;;2099070;28;20161;-71
2023/06/22 00:33:09;;;;;;;5.32;4.43;;;22.80;98.20;;;;;;2098294;28;20392;-71
2023/06/22 00:34:12;;;;;;;5.63;3.63;;;22.90;98.00;;;;;;2098204;28;20395;-71
2023/06/22 00:35:13;;;;;;;6.88;4.35;;;22.90;98.10;;;;;;2098091;28;20031;-71
2023/06/22 00:36:16;;;;;;;4.82;4.35;;;22.80;97.70;;;;;;2096348;28;20032;-71
2023/06/22 00:37:17;;;;;;;6.72;4.75;;;22.80;97.40;;;;;;2098691;28;20475;-71
2023/06/22 00:38:18;;;;;;;5.35;4.82;;;22.80;98.00;;;;;;2099858;28;20020;-71
2023/06/22 00:39:18;;;;;;;6.28;5.40;;;22.80;98.80;;;;;;2098751;28;20067;-71
2023/06/22 00:40:21;;;;;;;6.07;5.57;;;22.90;99.40;;;;;;2099201;28;20035;-71
2023/06/22 00:41:22;;;;;;;5.22;4.28;;;22.90;99.30;;;;;;2099154;28;20024;-71
2023/06/22 00:42:23;;;;;;;5.72;4.65;;;22.90;99.00;;;;;;2098071;28;20560;-71
2023/06/22 00:43:23;;;;;;;4.15;3.80;;;22.90;99.40;;;;;;2097736;28;20746;-71
2023/06/22 00:44:24;;;;;;;5.15;4.75;;;22.90;98.80;;;;;;2098576;28;20029;-71
2023/06/22 00:45:25;;;;;;;9.55;4.95;;;22.90;99.90;;;;;;2102530;28;20103;-71
2023/06/22 00:46:26;;;;;;;5.65;4.38;;;22.90;99.40;;;;;;2101099;28;20392;-71
2023/06/22 00:47:27;;;;;;;5.28;4.68;;;22.90;98.70;;;;;;2097378;28;20025;-71
2023/06/22 00:48:27;;;;;;;4.70;3.65;;;22.90;99.60;;;;;;2096661;28;20052;-71
2023/06/22 00:49:28;;;;;;;4.93;4.40;;;22.90;99.10;;;;;;2098110;28;20032;-71
2023/06/22 00:50:35;;;;;;;4.45;4.05;;;22.90;99.70;;;;;;2098313;28;20029;-71
2023/06/22 00:51:38;;;;;;;5.85;4.57;;;22.90;99.50;;;;;;2097680;28;20411;-71
2023/06/22 00:52:43;;;;;;;5.78;4.47;;;22.90;99.50;;;;;;2097480;28;20032;-71
2023/06/22 00:53:43;;;;;;;5.72;4.82;;;22.90;98.80;;;;;;2098862;28;20032;-71
2023/06/22 00:54:45;;;;;;;6.20;5.60;;;22.90;99.70;;;;;;2097277;28;20032;-71
2023/06/22 00:55:51;;;;;;;6.95;6.35;;;22.90;99.90;;;;;;2097861;28;20025;-71
2023/06/22 00:56:56;;;;;;;5.65;5.15;;;22.90;99.90;;;;;;2099015;28;20016;-71
2023/06/22 00:57:56;;;;;;;6.03;5.38;;;22.90;99.90;;;;;;2098274;28;20028;-71
2023/06/22 00:58:59;;;;;;;5.30;4.80;;;22.90;99.90;;;;;;2099132;28;20024;-71
2023/06/22 00:59:59;;;;;;;5.72;5.22;;;22.80;99.90;;;;;;2097129;28;20034;-71
2023/06/22 01:01:01;;;;;;;4.63;4.22;;;22.80;99.90;;;;;;2099060;28;20036;-71
2023/06/22 01:02:01;;;;;;;6.75;6.00;;;22.90;99.60;;;;;;2097893;28;20024;-71
2023/06/22 01:03:03;;;;;;;6.40;5.18;;;22.80;99.90;;;;;;2097314;28;20036;-71
2023/06/22 01:04:03;;;;;;;6.18;5.53;;;22.90;99.90;;;;;;2098263;28;20024;-71
2023/06/22 01:05:05;;;;;;;6.22;5.00;;;22.90;99.90;;;;;;2097661;28;20119;-71
2023/06/22 01:06:15;;;;;;;5.85;4.97;;;22.80;99.70;;;;;;2099698;28;20073;-71
2023/06/22 01:07:37;;;;;;;6.40;5.82;;;22.80;99.90;;;;;;2097946;28;20040;-71
2023/06/22 01:08:46;;;;;;;6.65;6.05;;;22.80;99.90;;;;;;2097985;28;20826;-71
2023/06/22 01:09:56;;;;;;;7.75;6.65;;;22.90;99.90;;;;;;2097449;28;20040;-71
2023/06/22 01:11:18;;;;;;;7.78;5.53;;;22.80;99.90;;;;;;2101451;28;20048;-71
2023/06/22 01:12:19;;;;;;;7.55;5.68;;;22.80;99.90;;;;;;2097354;28;20016;-71
2023/06/22 01:13:35;;;;;;;6.28;5.35;;;22.80;99.90;;;;;;2097362;28;20038;-71
2023/06/22 01:14:42;;;;;;;5.47;4.97;;;22.80;99.90;;;;;;2099459;28;20103;-71
2023/06/22 01:15:53;;;;;;;7.20;6.45;;;22.80;99.90;;;;;;2098436;28;20031;-71
2023/06/22 01:16:56;;;;;;;11.18;7.13;;;22.80;99.90;;;;;;2098847;28;20020;-71
2023/06/22 01:17:58;;;;;;;11.73;6.25;;;22.80;99.90;;;;;;2097856;28;20024;-71
2023/06/22 01:19:06;;;;;;;7.78;6.97;;;22.80;99.90;;;;;;2098275;28;20077;-71
2023/06/22 01:20:09;;;;;;;7.85;7.07;;;22.80;99.90;;;;;;2098420;28;20357;-71
2023/06/22 01:21:15;;;;;;;6.53;5.80;;;22.80;99.90;;;;;;2099956;28;20029;-71
2023/06/22 01:22:17;;;;;;;6.00;5.43;;;22.80;99.90;;;;;;2095739;28;20035;-71
2023/06/22 01:23:44;;;;;;;14.20;7.93;;;22.80;99.90;;;;;;2098055;28;20028;-71
2023/06/22 01:25:09;;;;;;;8.55;7.18;;;22.80;99.90;;;;;;2097003;28;20032;-71
2023/06/22 01:26:22;;;;;;;7.13;6.22;;;22.70;99.90;;;;;;2097417;28;20021;-71
2023/06/22 01:27:36;;;;;;;9.70;6.20;;;22.70;99.90;;;;;;2099374;28;20019;-71
2023/06/22 01:28:47;;;;;;;7.00;6.10;;;22.70;99.90;;;;;;2098714;28;20137;-71
2023/06/22 01:30:00;;;;;;;8.00;7.20;;;22.70;99.90;;;;;;2099597;28;20146;-71
2023/06/22 01:31:05;;;;;;;6.15;5.60;;;22.70;99.90;;;;;;2100727;28;21719;-71
2023/06/22 01:32:06;;;;;;;8.75;6.90;;;22.70;99.90;;;;;;2096619;28;20071;-71
2023/06/22 01:33:09;;;;;;;9.98;7.25;;;22.70;99.90;;;;;;2100535;28;20020;-71
2023/06/22 01:34:12;;;;;;;5.25;4.80;;;22.70;99.90;;;;;;2097242;28;20107;-71
2023/06/22 01:35:14;;;;;;;8.88;6.32;;;22.70;99.90;;;;;;2098132;28;20124;-71
2023/06/22 01:36:16;;;;;;;6.20;5.60;;;22.70;99.90;;;;;;2099418;28;20008;-71
2023/06/22 01:37:17;;;;;;;6.43;5.75;;;22.70;99.90;;;;;;2097974;28;20025;-71
2023/06/22 01:38:18;;;;;;;7.40;6.63;;;22.70;99.90;;;;;;2096615;28;20024;-71
2023/06/22 01:39:20;;;;;;;7.65;6.95;;;22.70;99.90;;;;;;2098139;28;20035;-71
2023/06/22 01:40:21;;;;;;;7.93;5.38;;;22.70;99.90;;;;;;2096747;28;20009;-71
2023/06/22 01:41:24;;;;;;;7.57;6.90;;;22.70;99.90;;;;;;2097651;28;20553;-71
2023/06/22 01:42:25;;;;;;;11.85;7.30;;;22.70;99.90;;;;;;2098123;28;20032;-71
2023/06/22 01:43:27;;;;;;;9.38;7.75;;;22.70;99.90;;;;;;2098540;28;20024;-71
2023/06/22 01:44:28;;;;;;;8.70;7.80;;;22.70;99.90;;;;;;2099110;28;20078;-71
2023/06/22 01:45:29;;;;;;;7.85;7.03;;;22.70;99.90;;;;;;2099571;28;20023;-71
2023/06/22 01:46:31;;;;;;;7.95;7.15;;;22.70;99.90;;;;;;2099175;28;20085;-71
2023/06/22 01:47:32;;;;;;;9.18;8.25;;;22.70;99.90;;;;;;2100201;28;20046;-71
2023/06/22 01:48:33;;;;;;;10.40;8.57;;;22.70;99.90;;;;;;2099362;28;20487;-71
2023/06/22 01:49:33;;;;;;;8.50;7.57;;;22.60;99.90;;;;;;2096759;28;20024;-71
2023/06/22 01:50:34;;;;;;;8.95;7.88;;;22.60;99.90;;;;;;2097133;28;20063;-71
2023/06/22 01:51:34;;;;;;;13.35;9.77;;;22.60;99.90;;;;;;2097612;28;20033;-71
2023/06/22 01:52:35;;;;;;;9.45;8.55;;;22.60;99.90;;;;;;2097812;28;20033;-71
2023/06/22 01:53:35;;;;;;;8.90;8.00;;;22.60;99.90;;;;;;2098570;28;20035;-71
2023/06/22 01:54:37;;;;;;;11.45;8.98;;;22.60;99.90;;;;;;2097976;28;20099;-71
2023/06/22 01:55:38;;;;;;;9.60;8.63;;;22.60;99.90;;;;;;2098736;28;20051;-71
2023/06/22 01:56:39;;;;;;;9.23;8.32;;;22.60;99.90;;;;;;2097371;28;20023;-71
2023/06/22 01:57:39;;;;;;;7.60;6.68;;;22.60;99.90;;;;;;2099401;28;20025;-71
2023/06/22 01:58:49;;;;;;;6.22;5.63;;;22.60;99.90;;;;;;2099223;28;20017;-71
2023/06/22 02:00:00;;;;;;;8.15;7.35;;;22.50;99.90;;;;;;2097033;28;20033;-71
2023/06/22 02:01:11;;;;;;;9.73;7.75;;;22.50;99.90;;;;;;2098327;28;20036;-71
2023/06/22 02:02:12;;;;;;;;;;;22.50;99.90;;;;;;2099422;28;20026;-71
2023/06/22 02:03:18;;;;;;;8.02;7.18;;;22.40;99.90;;;;;;2096445;28;19912;-71
2023/06/22 02:04:27;;;;;;;10.65;8.27;;;22.40;99.90;;;;;;2097835;28;20040;-71
2023/06/22 02:05:34;;;;;;;9.48;8.60;;;22.40;99.90;;;;;;2098562;28;20020;-71
2023/06/22 02:06:39;;;;;;;7.95;6.95;;;22.40;99.90;;;;;;2098267;28;20028;-71
2023/06/22 02:07:46;;;;;;;9.60;8.70;;;22.50;99.90;;;;;;2096092;28;20029;-71
2023/06/22 02:08:51;;;;;;;7.82;7.07;;;22.40;99.90;;;;;;2097912;28;20528;-71
2023/06/22 02:09:54;;;;;;;12.77;9.15;;;22.40;99.90;;;;;;2097314;28;20039;-71
2023/06/22 02:10:56;;;;;;;9.55;8.55;;;22.40;99.90;;;;;;2098064;28;20079;-71
2023/06/22 02:11:57;;;;;;;9.20;8.30;;;22.40;99.90;;;;;;2097928;28;20409;-71
2023/06/22 02:12:59;;;;;;;8.13;7.40;;;22.40;99.90;;;;;;2097850;28;20032;-71
2023/06/22 02:14:00;;;;;;;9.40;8.38;;;22.40;99.90;;;;;;2097741;28;20028;-71
2023/06/22 02:15:01;;;;;;;10.48;9.45;;;22.40;99.90;;;;;;2097032;28;20028;-71
2023/06/22 02:16:02;;;;;;;10.30;9.30;;;22.40;99.90;;;;;;2097390;28;20028;-71
2023/06/22 02:17:04;;;;;;;9.40;8.50;;;22.50;99.90;;;;;;2096937;28;20052;-71
2023/06/22 02:18:05;;;;;;;10.77;9.57;;;22.40;99.90;;;;;;2096714;28;20029;-71
2023/06/22 02:19:06;;;;;;;9.50;8.60;;;22.40;99.90;;;;;;2096248;28;20103;-71
2023/06/22 02:20:13;;;;;;;9.60;8.70;;;22.40;99.90;;;;;;2098024;28;20048;-71
2023/06/22 02:21:14;;;;;;;7.20;6.53;;;22.40;99.90;;;;;;2100073;28;20043;-71
2023/06/22 02:22:14;;;;;;;6.43;5.75;;;22.40;99.90;;;;;;2098075;28;20032;-71
2023/06/22 02:23:15;;;;;;;7.95;7.15;;;22.40;99.90;;;;;;2096863;28;20246;-71
2023/06/22 02:24:15;;;;;;;8.18;7.25;;;22.40;99.90;;;;;;2100357;28;20024;-71
2023/06/22 02:25:16;;;;;;;9.23;8.32;;;22.40;99.90;;;;;;2098480;28;20043;-71
2023/06/22 02:26:17;;;;;;;9.90;8.90;;;22.50;99.90;;;;;;2099300;28;20510;-71
2023/06/22 02:27:18;;;;;;;12.05;10.70;;;22.40;99.90;;;;;;2099399;28;20017;-71
2023/06/22 02:28:18;;;;;;;11.20;10.10;;;22.50;99.90;;;;;;2100061;28;20032;-71
2023/06/22 02:29:19;;;;;;;8.90;8.13;;;22.40;99.90;;;;;;2098154;28;20115;-71
2023/06/22 02:30:19;;;;;;;7.30;6.70;;;22.50;99.90;;;;;;2099188;28;20039;-71
2023/06/22 02:31:20;;;;;;;11.77;7.43;;;22.50;99.90;;;;;;2098015;28;20107;-71
2023/06/22 02:32:20;;;;;;;10.25;9.25;;;22.40;99.90;;;;;;2099004;28;20038;-71
2023/06/22 02:33:21;;;;;;;10.18;9.10;;;22.50;99.90;;;;;;2098172;28;20139;-71
2023/06/22 02:34:22;;;;;;;10.38;9.38;;;22.40;99.90;;;;;;2096937;28;20048;-71
2023/06/22 02:35:22;;;;;;;11.25;10.25;;;22.50;99.90;;;;;;2098072;28;20526;-71
2023/06/22 02:36:24;;;;;;;10.45;9.52;;;22.40;99.90;;;;;;2097289;28;20050;-71
2023/06/22 02:37:29;;;;;;;11.07;9.82;;;22.40;99.90;;;;;;2099963;28;20025;-71
2023/06/22 02:38:33;;;;;;;11.52;10.40;;;22.40;99.90;;;;;;2099439;28;20507;-71
2023/06/22 02:39:34;;;;;;;9.95;8.98;;;22.40;99.90;;;;;;2100450;28;20070;-71
2023/06/22 02:40:34;;;;;;;10.48;9.07;;;22.40;99.90;;;;;;2099812;28;20501;-71
2023/06/22 02:41:34;;;;;;;8.52;7.65;;;22.40;99.90;;;;;;2099232;28;20508;-71
2023/06/22 02:42:36;;;;;;;9.68;8.77;;;22.40;99.90;;;;;;2099509;28;20411;-71
2023/06/22 02:43:36;;;;;;;10.20;9.23;;;22.40;99.90;;;;;;2098756;28;20027;-71
2023/06/22 02:44:37;;;;;;;12.15;8.82;;;22.40;99.90;;;;;;2100389;28;20028;-71
2023/06/22 02:45:38;;;;;;;8.30;7.47;;;22.40;99.90;;;;;;2099499;28;20021;-71
2023/06/22 02:46:38;;;;;;;9.57;8.70;;;22.40;99.90;;;;;;2098934;28;20044;-71
2023/06/22 02:47:39;;;;;;;10.60;9.60;;;22.50;99.90;;;;;;2099365;28;20029;-71
2023/06/22 02:48:40;;;;;;;9.05;8.18;;;22.50;99.90;;;;;;2099590;28;20026;-71
2023/06/22 02:49:41;;;;;;;9.80;9.00;;;22.50;99.90;;;;;;2097752;28;20391;-71
2023/06/22 02:50:42;;;;;;;8.43;7.65;;;22.50;99.90;;;;;;2099608;28;20510;-71
2023/06/22 02:51:46;;;;;;;10.15;8.38;;;22.40;99.90;;;;;;2102210;28;20351;-71
2023/06/22 02:52:47;;;;;;;9.63;8.63;;;22.40;99.90;;;;;;2099923;28;20024;-71
2023/06/22 02:53:47;;;;;;;8.90;8.10;;;22.50;99.90;;;;;;2100553;28;20473;-71
2023/06/22 02:54:48;;;;;;;8.90;7.95;;;22.50;99.90;;;;;;2098902;28;20491;-71
2023/06/22 02:55:48;;;;;;;9.20;8.40;;;22.50;99.90;;;;;;2100317;28;20097;-71
2023/06/22 02:56:50;;;;;;;9.57;8.60;;;22.40;99.90;;;;;;2101473;28;20570;-70
2023/06/22 02:57:52;;;;;;;12.70;9.45;;;22.40;99.90;;;;;;2098152;28;20024;-71
2023/06/22 02:58:53;;;;;;;9.02;8.23;;;22.40;99.90;;;;;;2098052;28;20069;-71
2023/06/22 02:59:55;;;;;;;9.68;8.68;;;22.40;99.90;;;;;;2100057;28;20045;-71
2023/06/22 03:00:55;;;;;;;11.02;10.00;;;22.40;99.90;;;;;;2099581;28;20989;-70
2023/06/22 03:01:56;;;;;;;10.45;9.30;;;22.40;99.90;;;;;;2101323;28;20396;-71
2023/06/22 03:02:57;;;;;;;8.77;7.97;;;22.40;99.90;;;;;;2099691;28;20070;-71
2023/06/22 03:03:58;;;;;;;11.80;10.50;;;22.40;99.90;;;;;;2099019;28;20042;-71
2023/06/22 03:05:00;;;;;;;11.40;10.20;;;22.40;99.90;;;;;;2099214;28;20039;-71
2023/06/22 03:06:01;;;;;;;11.25;9.70;;;22.40;99.90;;;;;;2099716;28;20093;-71
2023/06/22 03:07:02;;;;;;;10.38;9.25;;;22.40;99.90;;;;;;2098607;28;20024;-71
2023/06/22 03:08:03;;;;;;;11.88;10.45;;;22.40;99.90;;;;;;2099927;28;20450;-71
2023/06/22 03:09:04;;;;;;;11.43;10.20;;;22.40;99.90;;;;;;2098263;28;20450;-71
2023/06/22 03:10:05;;;;;;;11.35;9.25;;;22.30;99.90;;;;;;2099065;28;20055;-71
2023/06/22 03:11:07;;;;;;;11.05;9.95;;;22.40;99.90;;;;;;2099176;28;20031;-71
2023/06/22 03:12:08;;;;;;;13.38;10.63;;;22.40;99.90;;;;;;2099642;28;20396;-71
2023/06/22 03:13:08;;;;;;;11.85;10.75;;;22.30;99.90;;;;;;2097878;28;20119;-71
2023/06/22 03:14:09;;;;;;;12.93;10.73;;;22.30;99.90;;;;;;2098953;28;20480;-71
2023/06/22 03:15:12;;;;;;;11.05;10.07;;;22.30;99.90;;;;;;2098321;28;20020;-71
2023/06/22 03:16:12;;;;;;;12.55;10.57;;;22.30;99.90;;;;;;2097425;28;20049;-71
2023/06/22 03:17:13;;;;;;;13.60;11.18;;;22.30;99.90;;;;;;2099431;28;20024;-71
2023/06/22 03:18:13;;;;;;;12.77;11.50;;;22.30;99.90;;;;;;2100039;28;20046;-71
2023/06/22 03:19:14;;;;;;;10.95;9.00;;;22.30;99.90;;;;;;2100514;28;20024;-71
2023/06/22 03:20:14;;;;;;;7.65;7.05;;;22.30;99.90;;;;;;2098528;28;20169;-71
2023/06/22 03:21:16;;;;;;;11.20;10.15;;;22.30;99.90;;;;;;2096705;28;20036;-71
2023/06/22 03:22:17;;;;;;;11.15;9.98;;;22.30;99.90;;;;;;2098169;28;20110;-71
2023/06/22 03:23:18;;;;;;;10.55;9.30;;;22.30;99.90;;;;;;2097738;28;20051;-71
2023/06/22 03:24:18;;;;;;;12.00;10.77;;;22.30;99.90;;;;;;2099103;28;20055;-71
2023/06/22 03:25:19;;;;;;;12.77;11.45;;;22.30;99.90;;;;;;2100323;28;20097;-71
2023/06/22 03:26:20;;;;;;;12.07;10.98;;;22.20;99.90;;;;;;2099519;28;20051;-71
2023/06/22 03:27:20;;;;;;;12.32;11.15;;;22.20;99.90;;;;;;2099401;28;20020;-71
2023/06/22 03:28:21;;;;;;;12.93;11.60;;;22.20;99.90;;;;;;2098249;28;20024;-71
2023/06/22 03:29:22;;;;;;;13.32;12.00;;;22.20;99.90;;;;;;2100639;28;20020;-71
2023/06/22 03:30:22;;;;;;;13.13;11.82;;;22.20;99.90;;;;;;2098265;28;20037;-71
2023/06/22 03:31:23;;;;;;;13.68;12.38;;;22.20;99.90;;;;;;2098259;28;21018;-71
2023/06/22 03:32:25;;;;;;;12.45;11.25;;;22.20;99.90;;;;;;2099069;28;20029;-71
2023/06/22 03:33:25;;;;;;;13.20;11.80;;;22.20;99.90;;;;;;2099517;28;20476;-71
2023/06/22 03:34:26;;;;;;;13.18;11.00;;;22.20;99.90;;;;;;2099776;28;20357;-71
2023/06/22 03:35:27;;;;;;;13.43;12.10;;;22.10;99.90;;;;;;2099535;28;20022;-71
2023/06/22 03:36:27;;;;;;;12.50;11.30;;;22.10;99.90;;;;;;2099562;28;20017;-71
2023/06/22 03:37:29;;;;;;;12.63;11.50;;;22.10;99.90;;;;;;2100748;28;20115;-71
2023/06/22 03:38:29;;;;;;;13.10;11.80;;;22.10;99.90;;;;;;2096334;28;20476;-71
2023/06/22 03:39:31;;;;;;;14.02;12.63;;;22.10;99.90;;;;;;2098777;28;20676;-71
2023/06/22 03:40:31;;;;;;;12.45;9.52;;;22.10;99.90;;;;;;2098970;28;20556;-71
2023/06/22 03:41:32;;;;;;;12.10;10.90;;;22.00;99.90;;;;;;2097590;28;20474;-71
2023/06/22 03:42:35;;;;;;;10.35;9.35;;;22.00;99.90;;;;;;2099607;28;20098;-71
2023/06/22 03:43:36;;;;;;;11.00;9.95;;;22.00;99.90;;;;;;2098117;28;20032;-71
2023/06/22 03:44:36;;;;;;;12.20;11.15;;;22.00;99.90;;;;;;2099149;28;20127;-71
2023/06/22 03:45:37;;;;;;;12.70;10.82;;;22.00;99.90;;;;;;2099188;28;20016;-71
2023/06/22 03:46:37;;;;;;;11.65;10.45;;;22.00;99.90;;;;;;2100693;28;20020;-71
2023/06/22 03:47:38;;;;;;;9.68;8.73;;;22.00;99.90;;;;;;2098983;28;20090;-71
2023/06/22 03:48:38;;;;;;;14.43;12.35;;;22.00;99.90;;;;;;2097994;28;20020;-71
2023/06/22 03:49:39;;;;;;;14.13;12.75;;;22.00;99.90;;;;;;2098712;28;20492;-71
2023/06/22 03:50:40;;;;;;;11.15;10.15;;;22.00;99.90;;;;;;2096614;28;20032;-71
2023/06/22 03:51:40;;;;;;;14.00;12.73;;;22.00;99.90;;;;;;2100109;28;20481;-71
2023/06/22 03:52:41;;;;;;;11.48;9.73;;;22.00;99.90;;;;;;2097673;28;20031;-71
2023/06/22 03:53:41;;;;;;;16.05;12.57;;;22.00;99.90;;;;;;2098437;28;20551;-71
2023/06/22 03:54:42;;;;;;;10.27;9.38;;;22.00;99.90;;;;;;2097957;28;20015;-71
2023/06/22 03:55:51;;;;;;;12.65;11.50;;;21.90;99.90;;;;;;2097359;28;20051;-71
2023/06/22 03:56:51;;;;;;;20.40;13.70;;;22.00;99.90;;;;;;2098749;28;20035;-71
2023/06/22 03:57:54;;;;;;;13.82;12.43;;;21.90;99.90;;;;;;2098201;28;20111;-71
2023/06/22 03:58:54;;;;;;;15.13;13.60;;;21.90;99.90;;;;;;2097723;28;20087;-71
2023/06/22 03:59:56;;;;;;;14.05;12.75;;;21.90;99.90;;;;;;2102822;28;20024;-71
2023/06/22 04:00:57;;;;;;;13.00;11.80;;;21.90;99.90;;;;;;2101009;28;20137;-71
2023/06/22 04:01:57;;;;;;;14.90;13.43;;;21.90;99.90;;;;;;2099652;28;20110;-71
2023/06/22 04:02:58;;;;;;;14.23;12.45;;;21.90;99.90;;;;;;2099861;28;20028;-71
2023/06/22 04:03:58;;;;;;;14.48;13.02;;;21.90;99.90;;;;;;2098843;28;20035;-71
2023/06/22 04:04:59;;;;;;;9.57;8.60;;;21.90;99.90;;;;;;2099206;28;20035;-71
2023/06/22 04:05:59;;;;;;;13.40;12.00;;;21.90;99.90;;;;;;2097139;28;20032;-71
2023/06/22 04:07:00;;;;;;;15.48;14.05;;;21.90;99.90;;;;;;2101229;28;20040;-71
2023/06/22 04:08:01;;;;;;;15.02;13.48;;;22.00;99.90;;;;;;2102352;28;20062;-71
2023/06/22 04:09:02;;;;;;;15.02;13.52;;;21.90;99.90;;;;;;2100700;28;21180;-71
2023/06/22 04:10:04;;;;;;;14.75;13.23;;;21.90;99.90;;;;;;2100928;28;20036;-71
2023/06/22 04:11:05;;;;;;;15.35;13.80;;;21.90;99.90;;;;;;2100822;28;20151;-71
2023/06/22 04:12:06;;;;;;;16.38;13.57;;;21.90;99.90;;;;;;2101315;28;20755;-71
2023/06/22 04:13:06;;;;;;;14.13;12.82;;;21.90;99.90;;;;;;2100442;28;20035;-71
2023/06/22 04:14:07;;;;;;;15.93;14.27;;;21.90;99.90;;;;;;2097215;28;20028;-71
2023/06/22 04:15:08;;;;;;;14.40;12.98;;;21.90;99.90;;;;;;2098694;28;20343;-71
2023/06/22 04:16:08;;;;;;;13.88;12.57;;;22.00;99.90;;;;;;2098063;28;20029;-71
2023/06/22 04:17:09;;;;;;;14.07;12.55;;;22.10;99.90;;;;;;2098966;28;20484;-71
2023/06/22 04:18:09;;;;;;;15.48;13.98;;;22.10;99.90;;;;;;2099263;28;20035;-71
2023/06/22 04:19:15;;;;;;;15.23;13.63;;;22.20;99.90;;;;;;2098516;28;20013;-71
2023/06/22 04:20:16;;;;;;;15.52;13.15;;;22.20;99.90;;;;;;2098674;28;20025;-71
2023/06/22 04:21:20;;;;;;;14.15;12.82;;;22.20;99.90;;;;;;2097502;28;20028;-71
2023/06/22 04:22:20;;;;;;;14.57;13.23;;;22.20;99.90;;;;;;2097923;28;20036;-71
2023/06/22 04:23:21;;;;;;;16.65;14.23;;;22.20;99.90;;;;;;2099563;28;20135;-71
2023/06/22 04:24:21;;;;;;;14.82;13.38;;;22.20;99.90;;;;;;2097599;28;20032;-71
2023/06/22 04:25:22;;;;;;;14.88;13.35;;;22.20;99.90;;;;;;2098653;28;20031;-71
2023/06/22 04:26:22;;;;;;;14.68;13.27;;;22.20;99.90;;;;;;2097536;28;20032;-71
2023/06/22 04:27:23;;;;;;;15.13;13.68;;;22.20;99.90;;;;;;2099337;28;20031;-71
2023/06/22 04:28:24;;;;;;;14.20;12.80;;;22.20;99.90;;;;;;2099591;28;20704;-71
2023/06/22 04:29:29;;;;;;;15.10;13.68;;;22.10;99.90;;;;;;2096263;28;20613;-71
2023/06/22 04:30:32;;;;;;;14.93;13.52;;;22.10;99.90;;;;;;2097166;28;20438;-71
2023/06/22 04:31:36;;;;;;;15.00;13.27;;;22.10;99.90;;;;;;2099329;28;20059;-71
2023/06/22 04:32:37;;;;;;;14.88;13.38;;;22.10;99.90;;;;;;2099009;28;20096;-71
2023/06/22 04:33:40;;;;;;;14.77;13.25;;;22.10;99.90;;;;;;2099566;28;20017;-71
2023/06/22 04:34:41;;;;;;;15.70;14.23;;;22.10;99.90;;;;;;2098444;28;20040;-71
2023/06/22 04:35:44;;;;;;;17.58;14.45;;;22.10;99.90;;;;;;2099887;28;20030;-71
2023/06/22 04:36:45;;;;;;;14.82;13.45;;;22.00;99.90;;;;;;2096871;28;20028;-71
2023/06/22 04:37:48;;;;;;;14.80;13.40;;;22.00;99.90;;;;;;2098184;28;20655;-71
2023/06/22 04:38:52;;;;;;;19.77;12.32;;;22.00;99.90;;;;;;2099284;28;20044;-71
2023/06/22 04:39:52;;;;;;;15.65;12.68;;;22.00;99.90;;;;;;2097479;28;20024;-71
2023/06/22 04:40:53;;;;;;;15.18;13.77;;;22.00;99.90;;;;;;2097065;28;20019;-71
2023/06/22 04:41:55;;;;;;;14.70;13.40;;;22.00;99.90;;;;;;2098693;28;20519;-71
2023/06/22 04:42:56;;;;;;;15.18;13.77;;;22.00;99.90;;;;;;2098230;28;20028;-71
2023/06/22 04:43:59;;;;;;;14.38;13.07;;;22.00;99.90;;;;;;2098925;28;20029;-71
2023/06/22 04:45:00;;;;;;;16.00;14.43;;;22.00;99.90;;;;;;2097470;28;20536;-71
2023/06/22 04:46:03;;;;;;;15.77;14.05;;;22.00;99.90;;;;;;2098395;28;20734;-71
2023/06/22 04:47:06;;;;;;;16.08;14.32;;;22.00;99.90;;;;;;2099081;28;20038;-71
2023/06/22 04:48:09;;;;;;;14.77;13.38;;;21.90;99.90;;;;;;2098247;28;20020;-71
2023/06/22 04:49:10;;;;;;;14.93;13.43;;;22.00;99.90;;;;;;2097591;28;20027;-71
2023/06/22 04:50:11;;;;;;;14.77;13.38;;;21.90;99.90;;;;;;2097750;28;20039;-71
2023/06/22 04:51:12;;;;;;;14.45;13.20;;;21.90;99.90;;;;;;2098833;28;20077;-71
2023/06/22 04:52:17;;;;;;;14.38;12.98;;;21.90;99.90;;;;;;2098165;28;20036;-71
2023/06/22 04:53:18;;;;;;;14.65;13.40;;;22.00;99.90;;;;;;2097433;28;20049;-71
2023/06/22 04:54:18;;;;;;;14.95;13.35;;;21.90;99.90;;;;;;2097833;28;20020;-71
2023/06/22 04:55:20;;;;;;;15.15;13.65;;;21.90;99.90;;;;;;2098672;28;20043;-71
2023/06/22 04:56:21;;;;;;;15.02;13.63;;;22.00;99.90;;;;;;2097742;28;20028;-71
2023/06/22 04:57:32;;;;;;;15.82;14.45;;;22.00;99.90;;;;;;2097613;28;20041;-71
2023/06/22 04:58:32;;;;;;;15.30;13.82;;;22.00;99.90;;;;;;2096692;28;20024;-71
2023/06/22 04:59:33;;;;;;;15.23;13.73;;;21.90;99.90;;;;;;2098179;28;20055;-71
2023/06/22 05:00:36;;;;;;;14.70;13.40;;;22.00;99.90;;;;;;2098064;28;20526;-71
2023/06/22 05:01:36;;;;;;;13.38;12.13;;;21.90;99.90;;;;;;2099744;28;20052;-71
2023/06/22 05:02:40;;;;;;;15.90;14.45;;;22.00;99.90;;;;;;2097236;28;20024;-71
2023/06/22 05:03:41;;;;;;;14.95;13.65;;;21.90;99.90;;;;;;2099088;28;20027;-71
2023/06/22 05:04:42;;;;;;;15.30;13.90;;;22.00;99.90;;;;;;2100492;28;20507;-71
2023/06/22 05:05:42;;;;;;;14.55;13.35;;;22.00;99.90;;;;;;2097030;28;20441;-71
2023/06/22 05:06:43;;;;;;;15.60;14.00;;;22.00;99.90;;;;;;2097651;28;20048;-71
2023/06/22 05:07:47;;;;;;;15.57;13.98;;;22.00;99.90;;;;;;2098465;28;20078;-71
2023/06/22 05:08:48;;;;;;;13.65;12.40;;;22.00;99.90;;;;;;2098879;28;20818;-71
2023/06/22 05:09:48;;;;;;;14.45;13.15;;;22.00;99.90;;;;;;2096672;28;20029;-71
2023/06/22 05:10:49;;;;;;;16.27;13.73;;;22.10;99.90;;;;;;2099239;28;20047;-71
2023/06/22 05:11:49;;;;;;;14.48;13.15;;;22.10;99.90;;;;;;2098141;28;20019;-71
2023/06/22 05:12:50;;;;;;;15.52;12.90;;;22.10;99.90;;;;;;2097228;28;20039;-71
2023/06/22 05:13:50;;;;;;;15.90;14.45;;;22.10;99.90;;;;;;2099026;28;20043;-71
2023/06/22 05:14:51;;;;;;;15.63;14.15;;;22.10;99.90;;;;;;2097112;28;20132;-71
2023/06/22 05:15:51;;;;;;;15.20;13.43;;;22.10;99.90;;;;;;2100153;28;20023;-71
2023/06/22 05:16:52;;;;;;;14.98;13.38;;;22.10;99.90;;;;;;2097337;28;20028;-71
2023/06/22 05:17:52;;;;;;;18.13;12.48;;;22.10;99.90;;;;;;2099376;28;20137;-71
2023/06/22 05:18:56;;;;;;;14.30;13.05;;;22.10;99.90;;;;;;2098561;28;20406;-71
2023/06/22 05:19:57;;;;;;;13.88;12.57;;;22.20;99.90;;;;;;2098449;28;20028;-71